sensor_id;sensor_type;location;lat;lon;timestamp;P1;durP1;ratioP1;P2;durP2;ratioP2
54193;SDS011;40102;50.906;6.972;2023-04-23T00:00:11;5.20;;;4.20;;
54193;SDS011;40102;50.906;6.972;2023-04-23T00:02:37;5.88;;;4.32;;
54193;SDS011;40102;50.906;6.972;2023-04-23T00:05:03;5.88;;;4.38;;
54193;SDS011;40102;50.906;6.972;2023-04-23T00:07:30;4.75;;;3.60;;
54193;SDS011;40102;50.906;6.972;2023-04-23T00:09:57;6.05;;;4.28;;
54193;SDS011;40102;50.906;6.972;2023-04-23T00:12:24;6.20;;;4.40;;
54193;SDS011;40102;50.906;6.972;2023-04-23T00:14:50;5.82;;;3.63;;
54193;SDS011;40102;50.906;6.972;2023-04-23T00:17:16;4.97;;;3.60;;
54193;SDS011;40102;50.906;6.972;2023-04-23T00:19:41;6.88;;;4.70;;
54193;SDS011;40102;50.906;6.972;2023-04-23T00:22:07;6.07;;;4.40;;
54193;SDS011;40102;50.906;6.972;2023-04-23T00:24:32;7.57;;;5.40;;
54193;SDS011;40102;50.906;6.972;2023-04-23T00:27:00;7.35;;;5.22;;
54193;SDS011;40102;50.906;6.972;2023-04-23T00:29:26;7.72;;;4.55;;
54193;SDS011;40102;50.906;6.972;2023-04-23T00:31:51;5.95;;;4.60;;
54193;SDS011;40102;50.906;6.972;2023-04-23T00:34:16;6.50;;;4.63;;
54193;SDS011;40102;50.906;6.972;2023-04-23T00:36:42;6.32;;;4.80;;
54193;SDS011;40102;50.906;6.972;2023-04-23T00:39:07;8.38;;;5.60;;
54193;SDS011;40102;50.906;6.972;2023-04-23T00:41:33;9.43;;;6.80;;
54193;SDS011;40102;50.906;6.972;2023-04-23T00:43:59;11.55;;;6.55;;
54193;SDS011;40102;50.906;6.972;2023-04-23T00:46:24;7.35;;;5.60;;
54193;SDS011;40102;50.906;6.972;2023-04-23T00:48:53;8.27;;;6.40;;
54193;SDS011;40102;50.906;6.972;2023-04-23T00:51:20;9.88;;;6.78;;
54193;SDS011;40102;50.906;6.972;2023-04-23T00:53:47;10.55;;;7.20;;
54193;SDS011;40102;50.906;6.972;2023-04-23T00:56:13;11.55;;;8.00;;
54193;SDS011;40102;50.906;6.972;2023-04-23T00:58:39;10.50;;;7.57;;
54193;SDS011;40102;50.906;6.972;2023-04-23T01:01:04;11.43;;;7.55;;
54193;SDS011;40102;50.906;6.972;2023-04-23T01:03:31;9.52;;;6.68;;
54193;SDS011;40102;50.906;6.972;2023-04-23T01:06:00;12.07;;;7.75;;
54193;SDS011;40102;50.906;6.972;2023-04-23T01:08:25;12.88;;;7.85;;
54193;SDS011;40102;50.906;6.972;2023-04-23T01:10:51;12.43;;;8.30;;
54193;SDS011;40102;50.906;6.972;2023-04-23T01:13:17;12.98;;;8.25;;
54193;SDS011;40102;50.906;6.972;2023-04-23T01:15:43;12.63;;;8.57;;
54193;SDS011;40102;50.906;6.972;2023-04-23T01:18:09;14.57;;;8.75;;
54193;SDS011;40102;50.906;6.972;2023-04-23T01:20:35;12.77;;;8.68;;
54193;SDS011;40102;50.906;6.972;2023-04-23T01:23:04;13.70;;;8.82;;
54193;SDS011;40102;50.906;6.972;2023-04-23T01:25:30;13.80;;;9.05;;
54193;SDS011;40102;50.906;6.972;2023-04-23T01:27:56;15.07;;;8.65;;
54193;SDS011;40102;50.906;6.972;2023-04-23T01:30:23;13.25;;;8.60;;
54193;SDS011;40102;50.906;6.972;2023-04-23T01:32:51;14.32;;;9.55;;
54193;SDS011;40102;50.906;6.972;2023-04-23T01:35:18;13.57;;;9.27;;
54193;SDS011;40102;50.906;6.972;2023-04-23T01:37:44;14.43;;;9.82;;
54193;SDS011;40102;50.906;6.972;2023-04-23T01:40:10;15.05;;;10.23;;
54193;SDS011;40102;50.906;6.972;2023-04-23T01:42:36;15.05;;;10.15;;
54193;SDS011;40102;50.906;6.972;2023-04-23T01:45:03;17.02;;;10.25;;
54193;SDS011;40102;50.906;6.972;2023-04-23T01:47:29;15.98;;;10.27;;
54193;SDS011;40102;50.906;6.972;2023-04-23T01:49:54;16.55;;;10.65;;
54193;SDS011;40102;50.906;6.972;2023-04-23T01:52:20;15.82;;;10.25;;
54193;SDS011;40102;50.906;6.972;2023-04-23T01:54:45;16.73;;;10.70;;
54193;SDS011;40102;50.906;6.972;2023-04-23T01:57:10;16.30;;;10.90;;
54193;SDS011;40102;50.906;6.972;2023-04-23T01:59:36;16.95;;;10.82;;
54193;SDS011;40102;50.906;6.972;2023-04-23T02:02:02;17.95;;;11.02;;
54193;SDS011;40102;50.906;6.972;2023-04-23T02:04:27;17.67;;;11.73;;
54193;SDS011;40102;50.906;6.972;2023-04-23T02:06:53;15.93;;;10.57;;
54193;SDS011;40102;50.906;6.972;2023-04-23T02:09:19;18.92;;;11.57;;
54193;SDS011;40102;50.906;6.972;2023-04-23T02:11:45;18.52;;;12.10;;
54193;SDS011;40102;50.906;6.972;2023-04-23T02:14:10;21.85;;;11.95;;
54193;SDS011;40102;50.906;6.972;2023-04-23T02:16:36;18.88;;;11.05;;
54193;SDS011;40102;50.906;6.972;2023-04-23T02:19:01;18.38;;;10.82;;
54193;SDS011;40102;50.906;6.972;2023-04-23T02:21:26;15.85;;;10.32;;
54193;SDS011;40102;50.906;6.972;2023-04-23T02:23:52;15.02;;;9.57;;
54193;SDS011;40102;50.906;6.972;2023-04-23T02:26:17;13.52;;;9.15;;
54193;SDS011;40102;50.906;6.972;2023-04-23T02:28:43;13.90;;;8.95;;
54193;SDS011;40102;50.906;6.972;2023-04-23T02:31:09;14.55;;;8.43;;
54193;SDS011;40102;50.906;6.972;2023-04-23T02:33:35;17.85;;;10.98;;
54193;SDS011;40102;50.906;6.972;2023-04-23T02:36:00;15.55;;;10.50;;
54193;SDS011;40102;50.906;6.972;2023-04-23T02:38:25;16.92;;;10.38;;
54193;SDS011;40102;50.906;6.972;2023-04-23T02:40:51;17.77;;;10.32;;
54193;SDS011;40102;50.906;6.972;2023-04-23T02:43:16;13.68;;;9.38;;
54193;SDS011;40102;50.906;6.972;2023-04-23T02:45:42;14.77;;;9.70;;
54193;SDS011;40102;50.906;6.972;2023-04-23T02:48:08;18.90;;;12.35;;
54193;SDS011;40102;50.906;6.972;2023-04-23T02:50:34;17.33;;;11.23;;
54193;SDS011;40102;50.906;6.972;2023-04-23T02:53:00;19.10;;;12.38;;
54193;SDS011;40102;50.906;6.972;2023-04-23T02:55:25;17.95;;;11.75;;
54193;SDS011;40102;50.906;6.972;2023-04-23T02:57:53;19.25;;;12.18;;
54193;SDS011;40102;50.906;6.972;2023-04-23T03:00:19;20.85;;;12.32;;
54193;SDS011;40102;50.906;6.972;2023-04-23T03:02:44;20.88;;;12.20;;
54193;SDS011;40102;50.906;6.972;2023-04-23T03:05:10;21.20;;;13.23;;
54193;SDS011;40102;50.906;6.972;2023-04-23T03:07:36;21.45;;;13.13;;
54193;SDS011;40102;50.906;6.972;2023-04-23T03:10:02;25.20;;;13.65;;
54193;SDS011;40102;50.906;6.972;2023-04-23T03:12:27;21.77;;;13.55;;
54193;SDS011;40102;50.906;6.972;2023-04-23T03:14:52;24.42;;;14.50;;
54193;SDS011;40102;50.906;6.972;2023-04-23T03:17:18;23.27;;;14.10;;
54193;SDS011;40102;50.906;6.972;2023-04-23T03:19:43;25.23;;;14.95;;
54193;SDS011;40102;50.906;6.972;2023-04-23T03:22:09;25.10;;;15.10;;
54193;SDS011;40102;50.906;6.972;2023-04-23T03:24:35;22.58;;;14.15;;
54193;SDS011;40102;50.906;6.972;2023-04-23T03:27:00;24.33;;;14.70;;
54193;SDS011;40102;50.906;6.972;2023-04-23T03:29:25;26.48;;;15.20;;
54193;SDS011;40102;50.906;6.972;2023-04-23T03:31:51;23.85;;;15.15;;
54193;SDS011;40102;50.906;6.972;2023-04-23T03:34:16;24.48;;;14.18;;
54193;SDS011;40102;50.906;6.972;2023-04-23T03:36:42;27.55;;;15.10;;
54193;SDS011;40102;50.906;6.972;2023-04-23T03:39:08;27.33;;;15.52;;
54193;SDS011;40102;50.906;6.972;2023-04-23T03:41:34;24.73;;;14.68;;
54193;SDS011;40102;50.906;6.972;2023-04-23T03:44:00;26.38;;;15.43;;
54193;SDS011;40102;50.906;6.972;2023-04-23T03:46:25;26.13;;;15.23;;
54193;SDS011;40102;50.906;6.972;2023-04-23T03:48:50;24.83;;;15.02;;
54193;SDS011;40102;50.906;6.972;2023-04-23T03:51:16;28.50;;;15.80;;
54193;SDS011;40102;50.906;6.972;2023-04-23T03:53:41;25.88;;;15.90;;
54193;SDS011;40102;50.906;6.972;2023-04-23T03:56:06;27.73;;;15.27;;
54193;SDS011;40102;50.906;6.972;2023-04-23T03:58:32;25.90;;;15.27;;
54193;SDS011;40102;50.906;6.972;2023-04-23T04:00:57;28.38;;;15.32;;
54193;SDS011;40102;50.906;6.972;2023-04-23T04:03:22;28.40;;;16.00;;
54193;SDS011;40102;50.906;6.972;2023-04-23T04:05:48;25.45;;;14.60;;
54193;SDS011;40102;50.906;6.972;2023-04-23T04:08:13;24.27;;;15.25;;
54193;SDS011;40102;50.906;6.972;2023-04-23T04:10:38;26.20;;;15.63;;
54193;SDS011;40102;50.906;6.972;2023-04-23T04:13:05;23.40;;;14.40;;
54193;SDS011;40102;50.906;6.972;2023-04-23T04:15:30;23.35;;;13.95;;
54193;SDS011;40102;50.906;6.972;2023-04-23T04:17:57;21.52;;;13.57;;
54193;SDS011;40102;50.906;6.972;2023-04-23T04:20:22;22.83;;;13.63;;
54193;SDS011;40102;50.906;6.972;2023-04-23T04:22:48;24.45;;;13.80;;
54193;SDS011;40102;50.906;6.972;2023-04-23T04:25:13;24.40;;;14.15;;
54193;SDS011;40102;50.906;6.972;2023-04-23T04:27:38;23.15;;;14.00;;
54193;SDS011;40102;50.906;6.972;2023-04-23T04:30:05;21.73;;;13.55;;
54193;SDS011;40102;50.906;6.972;2023-04-23T04:32:31;22.17;;;13.25;;
54193;SDS011;40102;50.906;6.972;2023-04-23T04:34:57;18.55;;;11.73;;
54193;SDS011;40102;50.906;6.972;2023-04-23T04:37:22;23.27;;;13.50;;
54193;SDS011;40102;50.906;6.972;2023-04-23T04:39:48;21.17;;;12.38;;
54193;SDS011;40102;50.906;6.972;2023-04-23T04:42:13;19.85;;;12.70;;
54193;SDS011;40102;50.906;6.972;2023-04-23T04:44:39;19.42;;;12.30;;
54193;SDS011;40102;50.906;6.972;2023-04-23T04:47:05;21.75;;;12.23;;
54193;SDS011;40102;50.906;6.972;2023-04-23T04:49:33;19.73;;;12.15;;
54193;SDS011;40102;50.906;6.972;2023-04-23T04:51:59;22.02;;;12.23;;
54193;SDS011;40102;50.906;6.972;2023-04-23T04:54:25;19.48;;;12.13;;
54193;SDS011;40102;50.906;6.972;2023-04-23T04:56:50;18.75;;;12.13;;
54193;SDS011;40102;50.906;6.972;2023-04-23T04:59:16;18.65;;;11.50;;
54193;SDS011;40102;50.906;6.972;2023-04-23T05:01:41;18.63;;;12.00;;
54193;SDS011;40102;50.906;6.972;2023-04-23T05:04:07;19.95;;;11.23;;
54193;SDS011;40102;50.906;6.972;2023-04-23T05:06:32;18.65;;;11.15;;
54193;SDS011;40102;50.906;6.972;2023-04-23T05:08:57;17.42;;;10.90;;
54193;SDS011;40102;50.906;6.972;2023-04-23T05:11:23;18.42;;;11.45;;
54193;SDS011;40102;50.906;6.972;2023-04-23T05:13:48;17.70;;;11.45;;
54193;SDS011;40102;50.906;6.972;2023-04-23T05:16:14;18.23;;;11.68;;
54193;SDS011;40102;50.906;6.972;2023-04-23T05:18:39;18.08;;;11.68;;
54193;SDS011;40102;50.906;6.972;2023-04-23T05:21:06;19.10;;;11.68;;
54193;SDS011;40102;50.906;6.972;2023-04-23T05:23:32;18.00;;;11.02;;
54193;SDS011;40102;50.906;6.972;2023-04-23T05:25:57;17.20;;;10.45;;
54193;SDS011;40102;50.906;6.972;2023-04-23T05:28:23;14.52;;;9.85;;
54193;SDS011;40102;50.906;6.972;2023-04-23T05:30:49;15.32;;;9.70;;
54193;SDS011;40102;50.906;6.972;2023-04-23T05:33:15;15.18;;;9.85;;
54193;SDS011;40102;50.906;6.972;2023-04-23T05:35:40;14.15;;;9.38;;
54193;SDS011;40102;50.906;6.972;2023-04-23T05:38:06;17.38;;;9.43;;
54193;SDS011;40102;50.906;6.972;2023-04-23T05:40:33;12.60;;;8.77;;
54193;SDS011;40102;50.906;6.972;2023-04-23T05:42:58;14.13;;;9.07;;
54193;SDS011;40102;50.906;6.972;2023-04-23T05:45:24;14.25;;;9.02;;
54193;SDS011;40102;50.906;6.972;2023-04-23T05:47:49;13.95;;;8.55;;
54193;SDS011;40102;50.906;6.972;2023-04-23T05:50:15;13.20;;;8.40;;
54193;SDS011;40102;50.906;6.972;2023-04-23T05:52:41;9.88;;;7.20;;
54193;SDS011;40102;50.906;6.972;2023-04-23T05:55:06;11.65;;;7.82;;
54193;SDS011;40102;50.906;6.972;2023-04-23T05:57:33;10.85;;;7.57;;
54193;SDS011;40102;50.906;6.972;2023-04-23T06:00:00;11.30;;;7.50;;
54193;SDS011;40102;50.906;6.972;2023-04-23T06:02:25;10.85;;;7.25;;
54193;SDS011;40102;50.906;6.972;2023-04-23T06:04:52;9.25;;;6.80;;
54193;SDS011;40102;50.906;6.972;2023-04-23T06:07:17;9.68;;;6.85;;
54193;SDS011;40102;50.906;6.972;2023-04-23T06:09:43;8.23;;;5.90;;
54193;SDS011;40102;50.906;6.972;2023-04-23T06:12:08;8.85;;;6.28;;
54193;SDS011;40102;50.906;6.972;2023-04-23T06:14:34;8.80;;;5.75;;
54193;SDS011;40102;50.906;6.972;2023-04-23T06:17:00;8.23;;;5.45;;
54193;SDS011;40102;50.906;6.972;2023-04-23T06:19:25;8.18;;;5.90;;
54193;SDS011;40102;50.906;6.972;2023-04-23T06:21:51;7.53;;;5.50;;
54193;SDS011;40102;50.906;6.972;2023-04-23T06:24:17;7.47;;;5.65;;
54193;SDS011;40102;50.906;6.972;2023-04-23T06:26:43;7.13;;;5.10;;
54193;SDS011;40102;50.906;6.972;2023-04-23T06:29:08;7.60;;;5.30;;
54193;SDS011;40102;50.906;6.972;2023-04-23T06:31:33;8.73;;;5.60;;
54193;SDS011;40102;50.906;6.972;2023-04-23T06:33:59;8.25;;;4.93;;
54193;SDS011;40102;50.906;6.972;2023-04-23T06:36:25;5.07;;;4.10;;
54193;SDS011;40102;50.906;6.972;2023-04-23T06:38:50;8.70;;;4.88;;
54193;SDS011;40102;50.906;6.972;2023-04-23T06:41:16;6.40;;;4.70;;
54193;SDS011;40102;50.906;6.972;2023-04-23T06:43:41;6.32;;;4.57;;
54193;SDS011;40102;50.906;6.972;2023-04-23T06:46:07;6.22;;;4.35;;
54193;SDS011;40102;50.906;6.972;2023-04-23T06:48:32;8.50;;;4.90;;
54193;SDS011;40102;50.906;6.972;2023-04-23T06:50:58;6.00;;;4.45;;
54193;SDS011;40102;50.906;6.972;2023-04-23T06:53:23;5.88;;;4.50;;
54193;SDS011;40102;50.906;6.972;2023-04-23T06:55:48;6.68;;;4.60;;
54193;SDS011;40102;50.906;6.972;2023-04-23T06:58:15;7.70;;;4.35;;
54193;SDS011;40102;50.906;6.972;2023-04-23T07:00:43;7.68;;;4.40;;
54193;SDS011;40102;50.906;6.972;2023-04-23T07:03:09;6.10;;;4.78;;
54193;SDS011;40102;50.906;6.972;2023-04-23T07:05:34;6.47;;;4.57;;
54193;SDS011;40102;50.906;6.972;2023-04-23T07:07:59;7.55;;;4.20;;
54193;SDS011;40102;50.906;6.972;2023-04-23T07:10:25;6.57;;;4.32;;
54193;SDS011;40102;50.906;6.972;2023-04-23T07:12:50;5.55;;;3.50;;
54193;SDS011;40102;50.906;6.972;2023-04-23T07:15:15;5.00;;;3.83;;
54193;SDS011;40102;50.906;6.972;2023-04-23T07:17:41;8.02;;;4.40;;
54193;SDS011;40102;50.906;6.972;2023-04-23T07:20:06;5.60;;;4.00;;
54193;SDS011;40102;50.906;6.972;2023-04-23T07:22:32;5.30;;;4.10;;
54193;SDS011;40102;50.906;6.972;2023-04-23T07:24:59;5.28;;;3.78;;
54193;SDS011;40102;50.906;6.972;2023-04-23T07:27:25;5.85;;;3.55;;
54193;SDS011;40102;50.906;6.972;2023-04-23T07:29:50;5.05;;;3.80;;
54193;SDS011;40102;50.906;6.972;2023-04-23T07:32:16;6.82;;;3.85;;
54193;SDS011;40102;50.906;6.972;2023-04-23T07:34:41;6.18;;;4.18;;
54193;SDS011;40102;50.906;6.972;2023-04-23T07:37:06;5.70;;;3.92;;
54193;SDS011;40102;50.906;6.972;2023-04-23T07:39:32;5.28;;;3.65;;
54193;SDS011;40102;50.906;6.972;2023-04-23T07:41:57;4.88;;;3.70;;
54193;SDS011;40102;50.906;6.972;2023-04-23T07:44:23;5.07;;;4.07;;
54193;SDS011;40102;50.906;6.972;2023-04-23T07:46:49;4.05;;;3.30;;
54193;SDS011;40102;50.906;6.972;2023-04-23T07:49:14;6.25;;;3.33;;
54193;SDS011;40102;50.906;6.972;2023-04-23T07:51:40;5.15;;;2.90;;
54193;SDS011;40102;50.906;6.972;2023-04-23T07:54:06;5.10;;;3.00;;
54193;SDS011;40102;50.906;6.972;2023-04-23T07:56:33;6.38;;;2.95;;
54193;SDS011;40102;50.906;6.972;2023-04-23T07:58:58;6.80;;;3.17;;
54193;SDS011;40102;50.906;6.972;2023-04-23T08:01:24;3.45;;;2.60;;
54193;SDS011;40102;50.906;6.972;2023-04-23T08:03:50;5.38;;;2.83;;
54193;SDS011;40102;50.906;6.972;2023-04-23T08:06:15;3.88;;;2.70;;
54193;SDS011;40102;50.906;6.972;2023-04-23T08:08:42;5.38;;;2.90;;
54193;SDS011;40102;50.906;6.972;2023-04-23T08:11:08;3.75;;;2.45;;
54193;SDS011;40102;50.906;6.972;2023-04-23T08:13:33;4.03;;;2.83;;
54193;SDS011;40102;50.906;6.972;2023-04-23T08:15:58;3.65;;;2.88;;
54193;SDS011;40102;50.906;6.972;2023-04-23T08:18:24;3.50;;;2.80;;
54193;SDS011;40102;50.906;6.972;2023-04-23T08:20:49;3.22;;;2.70;;
54193;SDS011;40102;50.906;6.972;2023-04-23T08:23:16;3.42;;;2.50;;
54193;SDS011;40102;50.906;6.972;2023-04-23T08:25:41;3.90;;;2.60;;
54193;SDS011;40102;50.906;6.972;2023-04-23T08:28:06;3.45;;;2.38;;
54193;SDS011;40102;50.906;6.972;2023-04-23T08:30:32;3.45;;;2.50;;
54193;SDS011;40102;50.906;6.972;2023-04-23T08:32:57;3.10;;;2.28;;
54193;SDS011;40102;50.906;6.972;2023-04-23T08:35:23;6.25;;;2.53;;
54193;SDS011;40102;50.906;6.972;2023-04-23T08:37:48;4.00;;;2.47;;
54193;SDS011;40102;50.906;6.972;2023-04-23T08:40:13;2.58;;;2.13;;
54193;SDS011;40102;50.906;6.972;2023-04-23T08:42:49;3.25;;;2.33;;
54193;SDS011;40102;50.906;6.972;2023-04-23T08:45:21;4.60;;;2.35;;
54193;SDS011;40102;50.906;6.972;2023-04-23T08:47:47;4.15;;;2.35;;
54193;SDS011;40102;50.906;6.972;2023-04-23T08:50:17;3.30;;;2.10;;
54193;SDS011;40102;50.906;6.972;2023-04-23T08:52:48;2.70;;;2.33;;
54193;SDS011;40102;50.906;6.972;2023-04-23T08:55:16;3.72;;;2.63;;
54193;SDS011;40102;50.906;6.972;2023-04-23T08:57:43;3.03;;;2.20;;
54193;SDS011;40102;50.906;6.972;2023-04-23T09:00:10;5.07;;;2.30;;
54193;SDS011;40102;50.906;6.972;2023-04-23T09:02:42;3.40;;;2.50;;
54193;SDS011;40102;50.906;6.972;2023-04-23T09:05:09;5.28;;;2.30;;
54193;SDS011;40102;50.906;6.972;2023-04-23T09:07:35;3.83;;;2.15;;
54193;SDS011;40102;50.906;6.972;2023-04-23T09:10:01;4.50;;;1.77;;
54193;SDS011;40102;50.906;6.972;2023-04-23T09:12:27;3.30;;;1.90;;
54193;SDS011;40102;50.906;6.972;2023-04-23T09:14:53;4.80;;;2.00;;
54193;SDS011;40102;50.906;6.972;2023-04-23T09:17:20;4.22;;;1.95;;
54193;SDS011;40102;50.906;6.972;2023-04-23T09:19:47;4.50;;;2.17;;
54193;SDS011;40102;50.906;6.972;2023-04-23T09:22:14;5.15;;;2.35;;
54193;SDS011;40102;50.906;6.972;2023-04-23T09:24:42;3.25;;;1.90;;
54193;SDS011;40102;50.906;6.972;2023-04-23T09:27:08;2.70;;;1.90;;
54193;SDS011;40102;50.906;6.972;2023-04-23T09:29:34;3.42;;;1.77;;
54193;SDS011;40102;50.906;6.972;2023-04-23T09:32:08;3.83;;;1.58;;
54193;SDS011;40102;50.906;6.972;2023-04-23T09:34:34;2.03;;;1.83;;
54193;SDS011;40102;50.906;6.972;2023-04-23T09:37:04;3.17;;;1.70;;
54193;SDS011;40102;50.906;6.972;2023-04-23T09:39:32;2.00;;;1.45;;
54193;SDS011;40102;50.906;6.972;2023-04-23T09:42:01;2.50;;;1.40;;
54193;SDS011;40102;50.906;6.972;2023-04-23T09:44:30;2.80;;;1.40;;
54193;SDS011;40102;50.906;6.972;2023-04-23T09:46:57;1.98;;;1.50;;
54193;SDS011;40102;50.906;6.972;2023-04-23T09:49:35;5.55;;;1.40;;
54193;SDS011;40102;50.906;6.972;2023-04-23T09:52:10;5.55;;;1.73;;
54193;SDS011;40102;50.906;6.972;2023-04-23T09:54:35;3.15;;;1.33;;
54193;SDS011;40102;50.906;6.972;2023-04-23T09:57:01;3.03;;;1.45;;
54193;SDS011;40102;50.906;6.972;2023-04-23T09:59:28;4.72;;;1.20;;
54193;SDS011;40102;50.906;6.972;2023-04-23T10:01:55;2.40;;;1.48;;
54193;SDS011;40102;50.906;6.972;2023-04-23T10:04:21;2.10;;;1.08;;
54193;SDS011;40102;50.906;6.972;2023-04-23T10:09:21;3.25;;;1.67;;
54193;SDS011;40102;50.906;6.972;2023-04-23T10:11:56;4.45;;;1.10;;
54193;SDS011;40102;50.906;6.972;2023-04-23T10:14:24;2.30;;;1.10;;
54193;SDS011;40102;50.906;6.972;2023-04-23T10:16:51;2.67;;;1.15;;
54193;SDS011;40102;50.906;6.972;2023-04-23T10:19:24;3.40;;;1.30;;
54193;SDS011;40102;50.906;6.972;2023-04-23T10:21:54;3.65;;;1.20;;
54193;SDS011;40102;50.906;6.972;2023-04-23T10:24:22;2.53;;;1.13;;
54193;SDS011;40102;50.906;6.972;2023-04-23T10:26:49;3.10;;;1.08;;
54193;SDS011;40102;50.906;6.972;2023-04-23T10:29:16;2.72;;;1.00;;
54193;SDS011;40102;50.906;6.972;2023-04-23T10:31:47;2.65;;;0.85;;
54193;SDS011;40102;50.906;6.972;2023-04-23T10:34:14;2.35;;;0.90;;
54193;SDS011;40102;50.906;6.972;2023-04-23T10:36:39;1.67;;;0.85;;
54193;SDS011;40102;50.906;6.972;2023-04-23T10:39:05;1.52;;;0.90;;
54193;SDS011;40102;50.906;6.972;2023-04-23T10:41:35;4.43;;;1.13;;
54193;SDS011;40102;50.906;6.972;2023-04-23T10:44:08;2.60;;;1.23;;
54193;SDS011;40102;50.906;6.972;2023-04-23T10:46:36;3.88;;;1.40;;
54193;SDS011;40102;50.906;6.972;2023-04-23T10:49:14;1.70;;;0.95;;
54193;SDS011;40102;50.906;6.972;2023-04-23T10:51:40;4.60;;;1.25;;
54193;SDS011;40102;50.906;6.972;2023-04-23T10:54:10;5.45;;;1.20;;
54193;SDS011;40102;50.906;6.972;2023-04-23T10:56:38;4.20;;;1.00;;
54193;SDS011;40102;50.906;6.972;2023-04-23T10:59:06;2.20;;;0.88;;
54193;SDS011;40102;50.906;6.972;2023-04-23T11:01:33;3.50;;;0.90;;
54193;SDS011;40102;50.906;6.972;2023-04-23T11:03:58;2.72;;;1.00;;
54193;SDS011;40102;50.906;6.972;2023-04-23T11:09:28;2.20;;;0.88;;
54193;SDS011;40102;50.906;6.972;2023-04-23T11:11:54;3.58;;;0.90;;
54193;SDS011;40102;50.906;6.972;2023-04-23T11:14:32;1.95;;;0.73;;
54193;SDS011;40102;50.906;6.972;2023-04-23T11:17:04;9.43;;;1.20;;
54193;SDS011;40102;50.906;6.972;2023-04-23T11:19:36;2.78;;;1.05;;
54193;SDS011;40102;50.906;6.972;2023-04-23T11:22:06;2.13;;;0.80;;
54193;SDS011;40102;50.906;6.972;2023-04-23T11:24:39;3.90;;;0.95;;
54193;SDS011;40102;50.906;6.972;2023-04-23T11:27:06;2.35;;;0.88;;
54193;SDS011;40102;50.906;6.972;2023-04-23T11:29:36;1.90;;;0.90;;
54193;SDS011;40102;50.906;6.972;2023-04-23T11:32:04;1.88;;;0.80;;
54193;SDS011;40102;50.906;6.972;2023-04-23T11:37:00;2.55;;;0.70;;
54193;SDS011;40102;50.906;6.972;2023-04-23T11:39:26;1.88;;;1.02;;
54193;SDS011;40102;50.906;6.972;2023-04-23T11:41:52;3.50;;;0.80;;
54193;SDS011;40102;50.906;6.972;2023-04-23T11:44:18;4.10;;;0.95;;
54193;SDS011;40102;50.906;6.972;2023-04-23T11:46:45;1.83;;;0.70;;
54193;SDS011;40102;50.906;6.972;2023-04-23T11:49:14;3.72;;;1.02;;
54193;SDS011;40102;50.906;6.972;2023-04-23T11:51:44;2.42;;;0.85;;
54193;SDS011;40102;50.906;6.972;2023-04-23T11:54:10;1.27;;;0.97;;
54193;SDS011;40102;50.906;6.972;2023-04-23T11:56:37;2.65;;;0.90;;
54193;SDS011;40102;50.906;6.972;2023-04-23T11:59:04;4.35;;;0.90;;
54193;SDS011;40102;50.906;6.972;2023-04-23T12:01:43;5.00;;;1.00;;
54193;SDS011;40102;50.906;6.972;2023-04-23T12:06:36;2.03;;;0.87;;
54193;SDS011;40102;50.906;6.972;2023-04-23T12:09:02;2.38;;;0.80;;
54193;SDS011;40102;50.906;6.972;2023-04-23T12:11:27;5.07;;;0.73;;
54193;SDS011;40102;50.906;6.972;2023-04-23T12:13:52;1.42;;;0.80;;
54193;SDS011;40102;50.906;6.972;2023-04-23T12:16:18;3.90;;;0.85;;
54193;SDS011;40102;50.906;6.972;2023-04-23T12:18:57;1.45;;;0.80;;
54193;SDS011;40102;50.906;6.972;2023-04-23T12:21:25;5.65;;;0.77;;
54193;SDS011;40102;50.906;6.972;2023-04-23T12:23:52;2.38;;;1.17;;
54193;SDS011;40102;50.906;6.972;2023-04-23T12:26:18;2.38;;;0.77;;
54193;SDS011;40102;50.906;6.972;2023-04-23T12:28:54;2.05;;;0.90;;
54193;SDS011;40102;50.906;6.972;2023-04-23T12:31:26;2.28;;;1.00;;
54193;SDS011;40102;50.906;6.972;2023-04-23T12:34:02;1.85;;;0.75;;
54193;SDS011;40102;50.906;6.972;2023-04-23T12:36:33;3.08;;;0.90;;
54193;SDS011;40102;50.906;6.972;2023-04-23T12:41:44;1.55;;;0.60;;
54193;SDS011;40102;50.906;6.972;2023-04-23T12:44:10;3.03;;;0.85;;
54193;SDS011;40102;50.906;6.972;2023-04-23T12:46:35;1.70;;;0.65;;
54193;SDS011;40102;50.906;6.972;2023-04-23T12:49:01;3.30;;;0.80;;
54193;SDS011;40102;50.906;6.972;2023-04-23T12:51:26;1.60;;;0.50;;
54193;SDS011;40102;50.906;6.972;2023-04-23T12:53:51;2.83;;;0.75;;
54193;SDS011;40102;50.906;6.972;2023-04-23T12:56:19;2.53;;;0.70;;
54193;SDS011;40102;50.906;6.972;2023-04-23T12:58:45;2.72;;;0.65;;
54193;SDS011;40102;50.906;6.972;2023-04-23T13:01:10;2.58;;;0.73;;
54193;SDS011;40102;50.906;6.972;2023-04-23T13:03:38;6.63;;;0.80;;
54193;SDS011;40102;50.906;6.972;2023-04-23T13:06:03;1.50;;;0.73;;
54193;SDS011;40102;50.906;6.972;2023-04-23T13:08:29;1.55;;;0.77;;
54193;SDS011;40102;50.906;6.972;2023-04-23T13:10:54;4.93;;;2.25;;
54193;SDS011;40102;50.906;6.972;2023-04-23T13:13:19;1.05;;;0.57;;
54193;SDS011;40102;50.906;6.972;2023-04-23T13:15:45;2.05;;;0.80;;
54193;SDS011;40102;50.906;6.972;2023-04-23T13:18:10;3.28;;;0.70;;
54193;SDS011;40102;50.906;6.972;2023-04-23T13:20:36;1.88;;;0.63;;
54193;SDS011;40102;50.906;6.972;2023-04-23T13:23:01;0.93;;;0.60;;
54193;SDS011;40102;50.906;6.972;2023-04-23T13:25:27;2.05;;;0.70;;
54193;SDS011;40102;50.906;6.972;2023-04-23T13:27:52;3.55;;;0.80;;
54193;SDS011;40102;50.906;6.972;2023-04-23T13:30:18;3.03;;;0.60;;
54193;SDS011;40102;50.906;6.972;2023-04-23T13:32:43;2.90;;;1.00;;
54193;SDS011;40102;50.906;6.972;2023-04-23T13:35:08;1.83;;;0.73;;
54193;SDS011;40102;50.906;6.972;2023-04-23T13:37:34;1.70;;;0.75;;
54193;SDS011;40102;50.906;6.972;2023-04-23T13:39:59;1.17;;;0.60;;
54193;SDS011;40102;50.906;6.972;2023-04-23T13:42:25;2.33;;;0.75;;
54193;SDS011;40102;50.906;6.972;2023-04-23T13:44:50;3.15;;;1.00;;
54193;SDS011;40102;50.906;6.972;2023-04-23T13:47:16;1.98;;;0.70;;
54193;SDS011;40102;50.906;6.972;2023-04-23T13:49:41;1.50;;;0.90;;
54193;SDS011;40102;50.906;6.972;2023-04-23T13:52:07;1.35;;;0.80;;
54193;SDS011;40102;50.906;6.972;2023-04-23T13:54:33;0.98;;;0.60;;
54193;SDS011;40102;50.906;6.972;2023-04-23T13:56:59;2.95;;;0.65;;
54193;SDS011;40102;50.906;6.972;2023-04-23T13:59:25;2.72;;;0.73;;
54193;SDS011;40102;50.906;6.972;2023-04-23T14:01:50;2.97;;;0.70;;
54193;SDS011;40102;50.906;6.972;2023-04-23T14:04:16;3.42;;;0.80;;
54193;SDS011;40102;50.906;6.972;2023-04-23T14:06:42;2.63;;;0.80;;
54193;SDS011;40102;50.906;6.972;2023-04-23T14:09:09;1.25;;;0.60;;
54193;SDS011;40102;50.906;6.972;2023-04-23T14:11:35;0.93;;;0.70;;
54193;SDS011;40102;50.906;6.972;2023-04-23T14:14:03;2.20;;;0.80;;
54193;SDS011;40102;50.906;6.972;2023-04-23T14:16:28;2.30;;;1.27;;
54193;SDS011;40102;50.906;6.972;2023-04-23T14:18:53;3.85;;;1.40;;
54193;SDS011;40102;50.906;6.972;2023-04-23T14:21:19;1.80;;;1.08;;
54193;SDS011;40102;50.906;6.972;2023-04-23T14:28:58;2.28;;;1.08;;
54193;SDS011;40102;50.906;6.972;2023-04-23T14:31:27;2.28;;;1.10;;
54193;SDS011;40102;50.906;6.972;2023-04-23T14:33:54;2.25;;;1.13;;
54193;SDS011;40102;50.906;6.972;2023-04-23T14:36:23;1.65;;;1.13;;
54193;SDS011;40102;50.906;6.972;2023-04-23T14:38:49;6.68;;;1.35;;
54193;SDS011;40102;50.906;6.972;2023-04-23T14:41:14;3.30;;;1.15;;
54193;SDS011;40102;50.906;6.972;2023-04-23T14:43:39;1.88;;;1.05;;
54193;SDS011;40102;50.906;6.972;2023-04-23T14:46:05;2.33;;;1.40;;
54193;SDS011;40102;50.906;6.972;2023-04-23T14:48:30;1.42;;;1.20;;
54193;SDS011;40102;50.906;6.972;2023-04-23T14:50:56;3.33;;;1.83;;
54193;SDS011;40102;50.906;6.972;2023-04-23T14:53:21;2.13;;;1.70;;